createdAt,value
2019-05-30T00:00:28.437Z,0.00
2019-05-30T00:01:28.425Z,0.00
2019-05-30T00:02:28.422Z,0.00
2019-05-30T00:04:28.391Z,0.00
2019-05-30T00:06:28.373Z,0.00
2019-05-30T00:07:28.385Z,0.00
2019-05-30T00:08:28.363Z,0.00
2019-05-30T00:09:28.347Z,0.00
2019-05-30T00:10:28.325Z,0.00
2019-05-30T00:11:28.337Z,0.00
2019-05-30T00:12:28.308Z,0.00
2019-05-30T00:13:28.297Z,0.00
2019-05-30T00:14:28.290Z,0.00
2019-05-30T00:15:28.276Z,0.00
2019-05-30T00:16:28.280Z,0.00
2019-05-30T00:17:28.405Z,0.00
2019-05-30T00:18:28.237Z,0.00
2019-05-30T00:19:28.302Z,0.00
2019-05-30T00:20:28.219Z,5.62
2019-05-30T00:21:28.211Z,5.62
2019-05-30T00:22:28.199Z,5.62
2019-05-30T00:23:28.194Z,5.62
2019-05-30T00:24:28.182Z,5.62
2019-05-30T00:25:28.177Z,5.62
2019-05-30T00:26:39.977Z,5.62
2019-05-30T00:27:28.147Z,5.62
2019-05-30T00:29:28.156Z,5.62
2019-05-30T00:30:28.114Z,5.62
2019-05-30T00:31:28.102Z,5.62
2019-05-30T00:32:28.089Z,5.62
2019-05-30T00:33:28.080Z,5.62
2019-05-30T00:35:28.070Z,11.25
2019-05-30T00:37:28.036Z,11.25
2019-05-30T00:38:28.025Z,11.25
2019-05-30T00:39:28.009Z,11.25
2019-05-30T00:40:28.011Z,11.25
2019-05-30T00:41:27.987Z,11.25
2019-05-30T00:42:27.981Z,11.25
2019-05-30T00:43:27.973Z,16.88
2019-05-30T00:44:27.957Z,16.88
2019-05-30T00:45:27.951Z,16.88
2019-05-30T00:46:27.948Z,16.88
2019-05-30T00:47:27.927Z,16.88
2019-05-30T00:48:27.913Z,16.88
2019-05-30T00:49:27.905Z,16.88
2019-05-30T00:50:27.899Z,16.88
2019-05-30T00:51:27.889Z,22.50
2019-05-30T00:52:27.874Z,22.50
2019-05-30T00:53:27.859Z,22.50
2019-05-30T00:54:27.847Z,22.50
2019-05-30T00:55:27.843Z,22.50
2019-05-30T00:56:27.869Z,22.50
2019-05-30T00:57:39.112Z,28.12
2019-05-30T00:58:27.807Z,28.12
2019-05-30T01:00:42.996Z,28.12
2019-05-30T01:01:28.777Z,28.12
2019-05-30T01:02:27.763Z,33.75
2019-05-30T01:03:27.770Z,33.75
2019-05-30T01:04:27.744Z,33.75
2019-05-30T01:05:27.753Z,33.75
2019-05-30T01:27:27.488Z,73.12
2019-05-30T01:28:39.157Z,73.12
2019-05-30T01:29:27.463Z,78.75
2019-05-30T01:58:27.160Z,140.62
2019-05-30T01:59:39.276Z,146.25
2019-05-30T02:00:27.168Z,146.25
2019-05-30T02:29:26.841Z,950.62
2019-05-30T02:30:38.584Z,1001.25
2019-05-30T02:31:38.506Z,1035.00
2019-05-30T03:00:26.475Z,1344.38
2019-05-30T03:01:58.355Z,1361.25
2019-05-30T03:02:27.457Z,1361.25
2019-05-30T03:12:26.348Z,1406.25
2019-05-30T03:31:29.199Z,1456.88
2019-05-30T03:33:03.663Z,1479.38
2019-05-30T03:33:39.360Z,1546.88
2019-05-30T03:34:29.174Z,1653.75
2019-05-30T03:35:29.894Z,1693.12
2019-05-30T03:36:31.214Z,1631.25
2019-05-30T03:37:29.396Z,1597.50
2019-05-30T03:38:26.077Z,1631.25
2019-05-30T03:39:26.073Z,1721.25
2019-05-30T03:40:28.239Z,1732.50
2019-05-30T03:41:26.052Z,1721.25
2019-05-30T03:42:26.031Z,1715.62
2019-05-30T03:43:26.015Z,1704.38
2019-05-30T03:44:26.002Z,1704.38
2019-05-30T03:45:26.010Z,1676.25
2019-05-30T03:46:25.974Z,1631.25
2019-05-30T03:47:25.976Z,1558.12
2019-05-30T03:48:25.952Z,1507.50
2019-05-30T03:49:25.942Z,1608.75
2019-05-30T03:50:25.938Z,1698.75
2019-05-30T03:51:25.935Z,1698.75
2019-05-30T03:52:25.939Z,1665.00
2019-05-30T03:53:25.910Z,1687.50
2019-05-30T03:54:25.895Z,1704.38
2019-05-30T03:55:25.887Z,1766.25
2019-05-30T03:56:25.873Z,1743.75
2019-05-30T03:57:25.858Z,1760.62
2019-05-30T03:58:26.172Z,1884.38
2019-05-30T03:59:25.860Z,1845.00
2019-05-30T04:00:25.831Z,1788.75
2019-05-30T04:01:25.824Z,1800.00
2019-05-30T04:02:25.814Z,1766.25
2019-05-30T04:03:37.840Z,1783.12
2019-05-30T04:04:25.787Z,1811.25
2019-05-30T04:05:25.786Z,1794.38
2019-05-30T04:06:25.778Z,1788.75
2019-05-30T04:07:25.754Z,1839.38
2019-05-30T04:08:25.800Z,1788.75
2019-05-30T04:09:25.732Z,1788.75
2019-05-30T04:10:25.722Z,1788.75
2019-05-30T04:11:25.723Z,1833.75
2019-05-30T04:12:25.710Z,1828.12
2019-05-30T04:14:25.689Z,1811.25
2019-05-30T04:15:25.669Z,1777.50
2019-05-30T04:16:25.683Z,1845.00
2019-05-30T04:17:25.648Z,2008.12
2019-05-30T04:18:25.664Z,2165.62
2019-05-30T04:19:25.645Z,2115.00
2019-05-30T04:20:25.622Z,2075.62
2019-05-30T04:21:26.339Z,2030.62
2019-05-30T04:22:25.611Z,2025.00
2019-05-30T04:23:25.592Z,2109.38
2019-05-30T04:24:25.607Z,2137.50
2019-05-30T04:25:25.572Z,2070.00
2019-05-30T04:26:25.552Z,2008.12
2019-05-30T04:27:25.545Z,1951.88
2019-05-30T04:28:25.542Z,1895.62
2019-05-30T04:29:25.529Z,1918.12
2019-05-30T04:30:25.526Z,1918.12
2019-05-30T04:31:25.506Z,1856.25
2019-05-30T04:32:25.486Z,1935.00
2019-05-30T04:33:32.026Z,1951.88
2019-05-30T04:35:40.121Z,1845.00
2019-05-30T04:37:40.058Z,1794.38
2019-05-30T04:38:40.051Z,1743.75
2019-05-30T04:39:40.034Z,1766.25
2019-05-30T04:40:40.027Z,1755.00
2019-05-30T04:41:40.026Z,1743.75
2019-05-30T04:42:40.002Z,1687.50
2019-05-30T04:43:40.006Z,1732.50
2019-05-30T04:45:39.971Z,1816.88
2019-05-30T04:46:39.991Z,1800.00
2019-05-30T04:47:39.952Z,1794.38
2019-05-30T04:48:39.945Z,1766.25
2019-05-30T04:49:39.929Z,1715.62
2019-05-30T04:50:39.929Z,1681.88
2019-05-30T04:51:39.910Z,1631.25
2019-05-30T04:52:39.929Z,1597.50
2019-05-30T04:53:39.895Z,1501.88
2019-05-30T04:54:39.882Z,1524.38
2019-05-30T04:55:39.868Z,1569.38
2019-05-30T04:56:39.862Z,1434.38
2019-05-30T04:57:39.923Z,1327.50
2019-05-30T04:58:42.177Z,1473.75
2019-05-30T04:59:39.845Z,1490.62
2019-05-30T05:00:39.814Z,1513.12
2019-05-30T05:01:40.408Z,1501.88
2019-05-30T05:02:39.796Z,1428.75
2019-05-30T05:03:46.007Z,1456.88
2019-05-30T05:04:40.774Z,1456.88
2019-05-30T05:06:39.754Z,1485.00
2019-05-30T05:08:39.750Z,1400.62
2019-05-30T05:09:39.721Z,1350.00
2019-05-30T05:10:39.712Z,1327.50
2019-05-30T05:11:39.696Z,1338.75
2019-05-30T05:12:39.687Z,1355.62
2019-05-30T05:13:39.674Z,1344.38
2019-05-30T05:14:39.705Z,1350.00
2019-05-30T05:16:39.640Z,1333.12
2019-05-30T05:17:39.651Z,1327.50
2019-05-30T05:18:39.621Z,1321.88
2019-05-30T05:19:39.636Z,1243.12
2019-05-30T05:20:39.602Z,1237.50
2019-05-30T05:21:39.590Z,1237.50
2019-05-30T05:22:39.571Z,1192.50
2019-05-30T05:23:39.572Z,1001.25
2019-05-30T05:24:39.561Z,798.75
2019-05-30T05:25:39.598Z,742.50
2019-05-30T05:26:39.541Z,742.50
2019-05-30T05:27:39.518Z,720.00
2019-05-30T05:28:39.510Z,697.50
2019-05-30T05:29:39.519Z,686.25
2019-05-30T05:30:39.485Z,680.62
2019-05-30T05:31:39.504Z,680.62
2019-05-30T05:32:39.463Z,691.88
2019-05-30T05:33:39.456Z,708.75
2019-05-30T05:34:39.441Z,759.38
2019-05-30T05:35:39.446Z,821.25
2019-05-30T05:36:51.365Z,871.88
2019-05-30T05:37:39.409Z,1023.75
2019-05-30T05:38:39.403Z,1310.62
2019-05-30T05:39:39.387Z,1462.50
2019-05-30T05:40:39.422Z,1305.00
2019-05-30T05:41:39.377Z,1158.75
2019-05-30T05:42:39.357Z,1130.62
2019-05-30T05:43:39.362Z,1130.62
2019-05-30T05:44:39.333Z,1068.75
2019-05-30T05:45:39.360Z,950.62
2019-05-30T05:46:39.322Z,905.62
2019-05-30T05:47:39.303Z,866.25
2019-05-30T05:48:39.310Z,922.50
2019-05-30T05:49:39.278Z,905.62
2019-05-30T05:50:39.320Z,781.88
2019-05-30T05:51:39.261Z,742.50
2019-05-30T05:52:39.253Z,759.38
2019-05-30T05:53:39.248Z,770.62
2019-05-30T05:54:39.233Z,765.00
2019-05-30T05:55:39.220Z,781.88
2019-05-30T05:56:39.220Z,770.62
2019-05-30T05:57:39.228Z,753.75
2019-05-30T05:58:39.186Z,731.25
2019-05-30T05:59:39.171Z,742.50
2019-05-30T06:00:39.169Z,736.88
2019-05-30T06:01:39.169Z,725.62
2019-05-30T06:02:39.144Z,736.88
2019-05-30T06:03:39.139Z,714.38
2019-05-30T06:04:39.120Z,720.00
2019-05-30T06:05:52.241Z,720.00
2019-05-30T06:06:40.096Z,720.00
2019-05-30T06:07:51.058Z,708.75
2019-05-30T06:08:39.079Z,697.50
2019-05-30T06:09:39.064Z,731.25
2019-05-30T06:10:39.052Z,753.75
2019-05-30T06:11:39.039Z,753.75
2019-05-30T06:12:39.035Z,776.25
2019-05-30T06:13:39.060Z,770.62
2019-05-30T06:14:39.029Z,765.00
2019-05-30T06:15:39.005Z,793.12
2019-05-30T06:16:39.011Z,793.12
2019-05-30T06:17:38.980Z,804.38
2019-05-30T06:18:38.968Z,843.75
2019-05-30T06:19:46.392Z,860.62
2019-05-30T06:20:39.945Z,883.12
2019-05-30T06:21:53.161Z,905.62
2019-05-30T06:22:39.937Z,922.50
2019-05-30T06:23:38.962Z,804.38
2019-05-30T06:24:38.908Z,500.62
2019-05-30T06:25:38.908Z,388.12
2019-05-30T06:26:38.883Z,382.50
2019-05-30T06:27:38.867Z,376.88
2019-05-30T06:28:38.858Z,371.25
2019-05-30T06:29:38.860Z,371.25
2019-05-30T06:30:38.834Z,371.25
2019-05-30T06:31:38.836Z,371.25
2019-05-30T06:32:38.822Z,371.25
2019-05-30T06:33:38.809Z,371.25
2019-05-30T06:34:40.063Z,371.25
2019-05-30T06:35:38.782Z,376.88
2019-05-30T06:36:38.774Z,371.25
2019-05-30T06:37:38.760Z,376.88
2019-05-30T06:39:38.748Z,365.62
2019-05-30T06:40:38.731Z,365.62
2019-05-30T06:41:38.710Z,365.62
2019-05-30T06:42:38.698Z,365.62
2019-05-30T06:43:38.697Z,365.62
2019-05-30T06:44:38.678Z,365.62
2019-05-30T06:45:38.683Z,365.62
2019-05-30T06:46:38.666Z,365.62
2019-05-30T06:47:38.653Z,365.62
2019-05-30T06:48:38.684Z,365.62
2019-05-30T06:49:38.631Z,365.62
2019-05-30T06:50:38.663Z,365.62
2019-05-30T06:51:38.609Z,365.62
2019-05-30T06:52:38.647Z,365.62
2019-05-30T06:53:38.581Z,365.62
2019-05-30T06:54:38.577Z,365.62
2019-05-30T06:55:38.559Z,365.62
2019-05-30T06:56:38.553Z,371.25
2019-05-30T06:57:38.538Z,382.50
2019-05-30T06:58:48.128Z,393.75
2019-05-30T06:59:39.518Z,388.12
2019-05-30T07:00:38.503Z,376.88
2019-05-30T07:01:38.534Z,360.00
2019-05-30T07:02:38.503Z,354.38
2019-05-30T07:03:38.538Z,354.38
2019-05-30T07:04:50.809Z,354.38
2019-05-30T07:05:40.123Z,354.38
2019-05-30T07:06:38.797Z,354.38
2019-05-30T07:07:38.683Z,354.38
2019-05-30T07:08:38.420Z,354.38
2019-05-30T07:10:38.393Z,348.75
2019-05-30T07:11:38.382Z,348.75
2019-05-30T07:12:38.365Z,348.75
2019-05-30T07:13:38.376Z,348.75
2019-05-30T07:14:38.342Z,348.75
2019-05-30T07:15:38.329Z,348.75
2019-05-30T07:16:38.325Z,348.75
2019-05-30T07:17:38.329Z,348.75
2019-05-30T07:18:38.301Z,348.75
2019-05-30T07:19:38.308Z,348.75
2019-05-30T07:20:38.275Z,348.75
2019-05-30T07:21:38.278Z,348.75
2019-05-30T07:22:38.275Z,348.75
2019-05-30T07:23:39.385Z,348.75
2019-05-30T07:24:38.239Z,348.75
2019-05-30T07:25:38.232Z,343.12
2019-05-30T07:26:38.222Z,343.12
2019-05-30T07:27:38.246Z,343.12
2019-05-30T07:28:38.195Z,343.12
2019-05-30T07:29:38.174Z,343.12
2019-05-30T07:30:38.162Z,343.12
2019-05-30T07:31:38.186Z,343.12
2019-05-30T07:32:38.147Z,343.12
2019-05-30T07:33:38.143Z,343.12
2019-05-30T07:34:38.121Z,343.12
2019-05-30T07:35:38.139Z,343.12
2019-05-30T07:36:38.616Z,343.12
2019-05-30T07:37:38.096Z,343.12
2019-05-30T07:38:38.095Z,343.12
2019-05-30T07:39:38.073Z,343.12
2019-05-30T07:41:38.039Z,348.75
2019-05-30T07:42:38.035Z,348.75
2019-05-30T07:43:38.073Z,343.12
2019-05-30T07:44:38.005Z,348.75
2019-05-30T07:45:38.001Z,348.75
2019-05-30T07:46:37.999Z,348.75
2019-05-30T07:47:38.611Z,348.75
2019-05-30T07:48:38.638Z,348.75
2019-05-30T07:49:38.687Z,348.75
2019-05-30T07:50:38.781Z,348.75
2019-05-30T07:51:39.028Z,348.75
2019-05-30T07:52:39.030Z,348.75
2019-05-30T07:53:39.066Z,348.75
2019-05-30T07:54:39.180Z,348.75
2019-05-30T07:55:37.892Z,348.75
2019-05-30T07:56:38.054Z,348.75
2019-05-30T07:57:40.730Z,348.75
2019-05-30T07:58:37.859Z,348.75
2019-05-30T07:59:38.723Z,348.75
2019-05-30T08:00:37.894Z,348.75
2019-05-30T08:01:39.623Z,348.75
2019-05-30T08:02:38.043Z,348.75
2019-05-30T08:03:38.872Z,348.75
2019-05-30T08:04:37.929Z,348.75
2019-05-30T08:05:38.891Z,348.75
2019-05-30T08:06:37.952Z,348.75
2019-05-30T08:07:38.974Z,348.75
2019-05-30T08:08:38.127Z,348.75
2019-05-30T08:09:37.738Z,348.75
2019-05-30T08:10:38.141Z,348.75
2019-05-30T08:12:38.424Z,348.75
2019-05-30T08:13:37.684Z,348.75
2019-05-30T08:14:37.671Z,348.75
2019-05-30T08:15:43.730Z,348.75
2019-05-30T08:16:38.693Z,348.75
2019-05-30T08:17:37.980Z,348.75
2019-05-30T08:18:37.980Z,348.75
2019-05-30T08:19:38.156Z,348.75
2019-05-30T08:20:38.027Z,348.75
2019-05-30T08:21:38.322Z,348.75
2019-05-30T08:22:38.347Z,348.75
2019-05-30T08:23:38.402Z,348.75
2019-05-30T08:24:38.869Z,348.75
2019-05-30T08:25:38.493Z,348.75
2019-05-30T08:26:38.494Z,348.75
2019-05-30T08:27:38.657Z,348.75
2019-05-30T08:28:38.592Z,348.75
2019-05-30T08:29:38.556Z,348.75
2019-05-30T08:30:38.613Z,348.75
2019-05-30T08:31:38.796Z,348.75
2019-05-30T08:32:38.777Z,348.75
2019-05-30T08:33:37.692Z,348.75
2019-05-30T08:34:38.741Z,348.75
2019-05-30T08:35:47.533Z,348.75
2019-05-30T08:36:39.178Z,348.75
2019-05-30T08:37:37.474Z,348.75
2019-05-30T08:38:37.504Z,348.75
2019-05-30T08:39:37.453Z,348.75
2019-05-30T08:40:37.776Z,348.75
2019-05-30T08:41:37.462Z,348.75
2019-05-30T08:43:37.575Z,348.75
2019-05-30T08:44:37.979Z,348.75
2019-05-30T08:45:38.004Z,348.75
2019-05-30T08:46:37.971Z,348.75
2019-05-30T08:47:38.087Z,348.75
2019-05-30T08:48:38.319Z,348.75
2019-05-30T08:49:38.266Z,348.75
2019-05-30T08:50:42.409Z,348.75
2019-05-30T08:51:38.349Z,348.75
2019-05-30T08:52:38.505Z,343.12
2019-05-30T08:53:38.351Z,348.75
2019-05-30T08:54:38.445Z,348.75
2019-05-30T08:55:38.494Z,348.75
2019-05-30T08:56:38.518Z,343.12
2019-05-30T08:57:38.304Z,343.12
2019-05-30T08:58:37.183Z,343.12
2019-05-30T08:59:37.159Z,343.12
2019-05-30T09:00:37.159Z,343.12
2019-05-30T09:01:37.745Z,343.12
2019-05-30T09:02:37.134Z,343.12
2019-05-30T09:03:38.409Z,343.12
2019-05-30T09:04:37.959Z,343.12
2019-05-30T09:05:37.134Z,343.12
2019-05-30T09:06:37.846Z,343.12
2019-05-30T09:07:38.226Z,343.12
2019-05-30T09:08:37.933Z,343.12
2019-05-30T09:09:38.144Z,343.12
2019-05-30T09:10:37.866Z,343.12
2019-05-30T09:11:37.677Z,343.12
2019-05-30T09:12:38.529Z,343.12
2019-05-30T09:14:38.878Z,337.50
2019-05-30T09:15:37.958Z,337.50
2019-05-30T09:16:36.977Z,337.50
2019-05-30T09:17:38.694Z,337.50
2019-05-30T09:18:38.546Z,337.50
2019-05-30T09:19:38.095Z,337.50
2019-05-30T09:20:38.075Z,337.50
2019-05-30T09:21:38.197Z,337.50
2019-05-30T09:22:37.990Z,337.50
2019-05-30T09:23:38.285Z,337.50
2019-05-30T09:24:37.470Z,337.50
2019-05-30T09:25:37.239Z,337.50
2019-05-30T09:26:38.455Z,337.50
2019-05-30T09:27:37.758Z,337.50
2019-05-30T09:28:37.727Z,337.50
2019-05-30T09:29:38.073Z,337.50
2019-05-30T09:30:38.195Z,337.50
2019-05-30T09:31:38.069Z,337.50
2019-05-30T09:32:36.785Z,337.50
2019-05-30T09:33:36.771Z,337.50
2019-05-30T09:34:36.836Z,337.50
2019-05-30T09:35:36.752Z,337.50
2019-05-30T09:36:36.769Z,337.50
2019-05-30T09:37:36.725Z,337.50
2019-05-30T09:38:36.759Z,337.50
2019-05-30T09:39:36.713Z,337.50
2019-05-30T09:40:36.696Z,337.50
2019-05-30T09:41:36.683Z,337.50
2019-05-30T09:42:36.684Z,337.50
2019-05-30T09:43:36.672Z,331.88
2019-05-30T09:45:36.635Z,331.88
2019-05-30T09:46:36.660Z,331.88
2019-05-30T09:47:36.622Z,337.50
2019-05-30T09:48:36.604Z,331.88
2019-05-30T09:49:36.594Z,337.50
2019-05-30T09:50:36.575Z,337.50
2019-05-30T09:51:36.566Z,337.50
2019-05-30T09:52:36.563Z,337.50
2019-05-30T09:53:36.572Z,337.50
2019-05-30T09:54:36.575Z,337.50
2019-05-30T09:55:36.530Z,337.50
2019-05-30T09:56:36.520Z,337.50
2019-05-30T09:57:36.623Z,337.50
2019-05-30T09:58:36.504Z,337.50
2019-05-30T09:59:36.539Z,337.50
2019-05-30T10:00:36.472Z,337.50
2019-05-30T10:01:36.460Z,337.50
2019-05-30T10:02:36.441Z,337.50
2019-05-30T10:03:36.475Z,337.50
2019-05-30T10:04:36.419Z,337.50
2019-05-30T10:05:36.449Z,337.50
2019-05-30T10:06:36.396Z,337.50
2019-05-30T10:07:36.393Z,337.50
2019-05-30T10:08:36.378Z,337.50
2019-05-30T10:09:36.378Z,337.50
2019-05-30T10:10:36.378Z,331.88
2019-05-30T10:11:36.411Z,337.50
2019-05-30T10:12:36.332Z,337.50
2019-05-30T10:13:36.318Z,337.50
2019-05-30T10:14:36.346Z,337.50
2019-05-30T10:15:48.548Z,331.88
2019-05-30T10:16:36.283Z,331.88
2019-05-30T10:17:36.274Z,331.88
2019-05-30T10:18:36.276Z,331.88
2019-05-30T10:19:36.258Z,331.88
2019-05-30T10:20:36.248Z,331.88
2019-05-30T10:21:36.236Z,331.88
2019-05-30T10:22:36.225Z,331.88
2019-05-30T10:23:36.210Z,331.88
2019-05-30T10:24:36.202Z,331.88
2019-05-30T10:25:36.198Z,331.88
2019-05-30T10:26:36.169Z,331.88
2019-05-30T10:27:36.168Z,331.88
2019-05-30T10:28:36.147Z,331.88
2019-05-30T10:29:36.146Z,326.25
2019-05-30T10:30:36.169Z,326.25
2019-05-30T10:31:36.120Z,331.88
2019-05-30T10:32:36.107Z,331.88
2019-05-30T10:33:36.100Z,331.88
2019-05-30T10:34:36.129Z,331.88
2019-05-30T10:35:36.085Z,331.88
2019-05-30T10:36:44.333Z,331.88
2019-05-30T10:37:37.054Z,331.88
2019-05-30T10:38:36.044Z,337.50
2019-05-30T10:39:36.024Z,337.50
2019-05-30T10:40:36.052Z,337.50
2019-05-30T10:41:36.065Z,337.50
2019-05-30T10:42:36.002Z,331.88
2019-05-30T10:43:36.001Z,331.88
2019-05-30T10:44:35.969Z,331.88
2019-05-30T10:45:38.589Z,331.88
2019-05-30T10:46:48.957Z,331.88
2019-05-30T10:47:35.927Z,337.50
2019-05-30T10:48:35.922Z,331.88
2019-05-30T10:49:35.910Z,331.88
2019-05-30T10:50:35.896Z,331.88
2019-05-30T10:51:35.887Z,331.88
2019-05-30T10:52:35.880Z,331.88
2019-05-30T10:53:37.599Z,331.88
2019-05-30T10:54:35.860Z,331.88
2019-05-30T10:55:35.842Z,337.50
2019-05-30T10:56:35.829Z,331.88
2019-05-30T10:57:35.830Z,331.88
2019-05-30T10:58:35.802Z,331.88
2019-05-30T10:59:35.830Z,331.88
2019-05-30T11:00:35.802Z,337.50
2019-05-30T11:01:35.789Z,337.50
2019-05-30T11:02:35.764Z,343.12
2019-05-30T11:03:35.755Z,343.12
2019-05-30T11:04:35.742Z,348.75
2019-05-30T11:05:35.732Z,343.12
2019-05-30T11:06:35.716Z,343.12
2019-05-30T11:07:35.711Z,315.00
2019-05-30T11:08:35.706Z,331.88
2019-05-30T11:09:35.690Z,331.88
2019-05-30T11:10:35.668Z,331.88
2019-05-30T11:11:35.663Z,331.88
2019-05-30T11:12:35.668Z,337.50
2019-05-30T11:13:35.644Z,348.75
2019-05-30T11:14:35.640Z,354.38
2019-05-30T11:15:35.620Z,360.00
2019-05-30T11:16:35.607Z,360.00
2019-05-30T11:17:48.993Z,360.00
2019-05-30T11:18:35.592Z,343.12
2019-05-30T11:19:35.573Z,348.75
2019-05-30T11:20:35.559Z,348.75
2019-05-30T11:21:35.551Z,348.75
2019-05-30T11:22:35.538Z,348.75
2019-05-30T11:23:35.531Z,241.88
2019-05-30T11:24:35.521Z,303.75
2019-05-30T11:25:35.514Z,331.88
2019-05-30T11:26:35.492Z,241.88
2019-05-30T11:27:35.485Z,241.88
2019-05-30T11:28:35.489Z,360.00
2019-05-30T11:29:35.467Z,354.38
2019-05-30T11:30:35.477Z,354.38
2019-05-30T11:31:35.457Z,354.38
2019-05-30T11:32:35.454Z,360.00
2019-05-30T11:33:35.432Z,275.62
2019-05-30T11:34:35.421Z,371.25
2019-05-30T11:35:35.391Z,371.25
2019-05-30T11:36:35.409Z,258.75
2019-05-30T11:37:35.370Z,241.88
2019-05-30T11:38:35.364Z,270.00
2019-05-30T11:39:35.397Z,371.25
2019-05-30T11:40:35.950Z,365.62
2019-05-30T11:41:35.330Z,331.88
2019-05-30T11:42:35.320Z,365.62
2019-05-30T11:43:35.315Z,360.00
2019-05-30T11:44:35.321Z,360.00
2019-05-30T11:45:35.301Z,365.62
2019-05-30T11:46:35.274Z,365.62
2019-05-30T11:47:35.258Z,371.25
2019-05-30T11:48:46.904Z,371.25
2019-05-30T11:49:35.234Z,365.62
2019-05-30T11:50:35.259Z,354.38
2019-05-30T11:51:35.211Z,343.12
2019-05-30T11:52:35.203Z,331.88
2019-05-30T11:53:35.187Z,326.25
2019-05-30T11:54:35.180Z,326.25
2019-05-30T11:55:35.169Z,320.62
2019-05-30T11:56:35.168Z,315.00
2019-05-30T11:57:35.190Z,309.38
2019-05-30T11:58:35.142Z,303.75
2019-05-30T11:59:35.119Z,303.75
2019-05-30T12:00:35.116Z,303.75
2019-05-30T12:01:35.108Z,303.75
2019-05-30T12:02:35.130Z,298.12
2019-05-30T12:03:35.078Z,298.12
2019-05-30T12:04:35.082Z,298.12
2019-05-30T12:05:35.051Z,303.75
2019-05-30T12:06:35.094Z,292.50
2019-05-30T12:07:36.799Z,292.50
2019-05-30T12:08:35.020Z,292.50
2019-05-30T12:09:35.045Z,292.50
2019-05-30T12:10:34.996Z,292.50
2019-05-30T12:11:34.982Z,292.50
2019-05-30T12:12:35.045Z,292.50
2019-05-30T12:13:34.970Z,292.50
2019-05-30T12:14:34.956Z,292.50
2019-05-30T12:15:34.956Z,292.50
2019-05-30T12:16:35.036Z,292.50
2019-05-30T12:17:34.926Z,286.88
2019-05-30T12:18:34.905Z,286.88
2019-05-30T12:19:46.538Z,286.88
2019-05-30T12:20:34.886Z,286.88
2019-05-30T12:21:34.875Z,286.88
2019-05-30T12:22:34.872Z,286.88
2019-05-30T12:23:34.851Z,286.88
2019-05-30T12:24:34.845Z,286.88
2019-05-30T12:25:34.831Z,286.88
2019-05-30T12:26:34.822Z,286.88
2019-05-30T12:27:34.940Z,286.88
2019-05-30T12:28:34.839Z,286.88
2019-05-30T12:29:34.795Z,286.88
2019-05-30T12:30:34.772Z,281.25
2019-05-30T12:31:34.777Z,281.25
2019-05-30T12:32:34.760Z,281.25
2019-05-30T12:33:34.759Z,281.25
2019-05-30T12:34:34.728Z,281.25
2019-05-30T12:35:34.725Z,281.25
2019-05-30T12:36:34.701Z,281.25
2019-05-30T12:37:34.699Z,281.25
2019-05-30T12:38:34.803Z,281.25
2019-05-30T12:39:34.677Z,281.25
2019-05-30T12:40:34.668Z,281.25
2019-05-30T12:41:34.658Z,281.25
2019-05-30T12:42:34.657Z,281.25
2019-05-30T12:43:34.664Z,281.25
2019-05-30T12:44:34.615Z,275.62
2019-05-30T12:45:34.624Z,275.62
2019-05-30T12:46:34.625Z,275.62
2019-05-30T12:47:34.585Z,275.62
2019-05-30T12:48:34.567Z,275.62
2019-05-30T12:49:34.566Z,275.62
2019-05-30T12:50:46.184Z,275.62
2019-05-30T12:51:34.532Z,275.62
2019-05-30T12:52:34.526Z,275.62
2019-05-30T12:53:34.513Z,275.62
2019-05-30T12:54:34.505Z,275.62
2019-05-30T12:55:37.576Z,275.62
2019-05-30T12:56:34.500Z,275.62
2019-05-30T12:57:34.581Z,275.62
2019-05-30T12:58:34.620Z,270.00
2019-05-30T12:59:34.709Z,270.00
2019-05-30T13:00:34.431Z,270.00
2019-05-30T13:01:34.422Z,270.00
2019-05-30T13:02:34.411Z,270.00
2019-05-30T13:03:34.424Z,270.00
2019-05-30T13:04:34.388Z,275.62
2019-05-30T13:05:34.395Z,275.62
2019-05-30T13:06:34.386Z,275.62
2019-05-30T13:07:34.370Z,275.62
2019-05-30T13:08:34.356Z,275.62
2019-05-30T13:09:34.353Z,275.62
2019-05-30T13:10:34.330Z,270.00
2019-05-30T13:11:34.315Z,275.62
2019-05-30T13:12:34.296Z,270.00
2019-05-30T13:13:34.282Z,270.00
2019-05-30T13:14:34.299Z,270.00
2019-05-30T13:15:34.282Z,270.00
2019-05-30T13:16:34.264Z,270.00
2019-05-30T13:17:34.282Z,270.00
2019-05-30T13:18:34.251Z,270.00
2019-05-30T13:19:34.221Z,270.00
2019-05-30T13:20:34.210Z,270.00
2019-05-30T13:21:46.111Z,270.00
2019-05-30T13:22:34.189Z,270.00
2019-05-30T13:23:34.173Z,270.00
2019-05-30T13:24:34.158Z,270.00
2019-05-30T13:25:34.147Z,270.00
2019-05-30T13:26:34.179Z,270.00
2019-05-30T13:27:34.125Z,270.00
2019-05-30T13:28:34.206Z,270.00
2019-05-30T13:29:34.105Z,270.00
2019-05-30T13:30:34.157Z,264.38
2019-05-30T13:31:34.085Z,264.38
2019-05-30T13:32:34.091Z,264.38
2019-05-30T13:33:34.071Z,264.38
2019-05-30T13:34:34.055Z,264.38
2019-05-30T13:35:34.045Z,264.38
2019-05-30T13:36:34.087Z,264.38
2019-05-30T13:37:34.031Z,264.38
2019-05-30T13:38:34.018Z,264.38
2019-05-30T13:39:34.022Z,264.38
2019-05-30T13:40:33.989Z,264.38
2019-05-30T13:41:33.978Z,264.38
2019-05-30T13:42:34.000Z,264.38
2019-05-30T13:43:33.978Z,264.38
2019-05-30T13:44:33.935Z,264.38
2019-05-30T13:45:33.935Z,264.38
2019-05-30T13:46:33.930Z,258.75
2019-05-30T13:47:33.908Z,258.75
2019-05-30T13:48:33.905Z,258.75
2019-05-30T13:49:33.894Z,258.75
2019-05-30T13:50:33.874Z,258.75
2019-05-30T13:51:34.014Z,258.75
2019-05-30T13:52:45.657Z,258.75
2019-05-30T13:53:33.843Z,258.75
2019-05-30T13:54:33.836Z,258.75
2019-05-30T13:55:33.814Z,258.75
2019-05-30T13:56:33.810Z,258.75
2019-05-30T13:57:33.790Z,258.75
2019-05-30T13:58:33.788Z,258.75
2019-05-30T13:59:33.821Z,258.75
2019-05-30T14:00:33.781Z,253.12
2019-05-30T14:01:33.755Z,253.12
2019-05-30T14:02:33.745Z,253.12
2019-05-30T14:03:33.736Z,253.12
2019-05-30T14:04:33.716Z,253.12
2019-05-30T14:05:33.725Z,253.12
2019-05-30T14:06:33.697Z,253.12
2019-05-30T14:07:33.716Z,253.12
2019-05-30T14:08:41.484Z,253.12
2019-05-30T14:09:34.664Z,253.12
2019-05-30T14:10:33.683Z,253.12
2019-05-30T14:11:33.642Z,253.12
2019-05-30T14:12:33.670Z,253.12
2019-05-30T14:13:33.622Z,253.12
2019-05-30T14:14:33.615Z,253.12
2019-05-30T14:15:33.773Z,253.12
2019-05-30T14:16:33.591Z,258.75
2019-05-30T14:17:33.573Z,253.12
2019-05-30T14:18:33.565Z,247.50
2019-05-30T14:19:33.611Z,247.50
2019-05-30T14:20:33.549Z,247.50
2019-05-30T14:21:33.551Z,247.50
2019-05-30T14:22:33.522Z,247.50
2019-05-30T14:23:45.547Z,247.50
2019-05-30T14:24:33.492Z,247.50
2019-05-30T14:25:33.490Z,247.50
2019-05-30T14:26:33.487Z,247.50
2019-05-30T14:27:33.461Z,247.50
2019-05-30T14:28:33.450Z,247.50
2019-05-30T14:29:33.437Z,247.50
2019-05-30T14:30:33.438Z,247.50
2019-05-30T14:31:33.469Z,241.88
2019-05-30T14:32:33.411Z,241.88
2019-05-30T14:33:33.404Z,241.88
2019-05-30T14:34:33.385Z,241.88
2019-05-30T14:35:33.391Z,241.88
2019-05-30T14:36:33.371Z,241.88
2019-05-30T14:37:33.386Z,241.88
2019-05-30T14:38:34.185Z,241.88
2019-05-30T14:39:33.338Z,241.88
2019-05-30T14:40:33.320Z,241.88
2019-05-30T14:41:33.337Z,241.88
2019-05-30T14:42:33.299Z,241.88
2019-05-30T14:43:33.286Z,241.88
2019-05-30T14:44:33.298Z,241.88
2019-05-30T14:45:33.284Z,241.88
2019-05-30T14:46:33.266Z,236.25
2019-05-30T14:47:33.251Z,236.25
2019-05-30T14:48:33.238Z,236.25
2019-05-30T14:49:33.293Z,236.25
2019-05-30T14:50:33.208Z,236.25
2019-05-30T14:51:35.468Z,236.25
2019-05-30T14:52:33.241Z,236.25
2019-05-30T14:53:33.187Z,236.25
2019-05-30T14:54:44.936Z,236.25
2019-05-30T14:55:33.151Z,236.25
2019-05-30T14:56:33.143Z,236.25
2019-05-30T14:57:33.136Z,236.25
2019-05-30T14:58:33.123Z,230.62
2019-05-30T14:59:33.109Z,230.62